sensor_id;sensor_type;location;lat;lon;timestamp;pressure;altitude;pressure_sealevel;temperature;humidity
64668;BME280;51077;42.716;23.344;2023-05-11T00:01:07;95598.25;;;11.44;58.01
64668;BME280;51077;42.716;23.344;2023-05-11T00:03:36;95594.53;;;11.41;57.89
64668;BME280;51077;42.716;23.344;2023-05-11T00:06:02;95590.25;;;11.40;58.07
64668;BME280;51077;42.716;23.344;2023-05-11T00:08:28;95602.50;;;11.39;58.06
64668;BME280;51077;42.716;23.344;2023-05-11T00:10:54;95594.78;;;11.38;57.99
64668;BME280;51077;42.716;23.344;2023-05-11T00:13:19;95607.78;;;11.37;58.15
64668;BME280;51077;42.716;23.344;2023-05-11T00:15:45;95606.03;;;11.34;57.89
64668;BME280;51077;42.716;23.344;2023-05-11T00:18:10;95604.56;;;11.33;58.08
64668;BME280;51077;42.716;23.344;2023-05-11T00:20:35;95609.31;;;11.32;57.79
64668;BME280;51077;42.716;23.344;2023-05-11T00:23:01;95603.34;;;11.28;57.78
64668;BME280;51077;42.716;23.344;2023-05-11T00:25:26;95598.09;;;11.25;57.79
64668;BME280;51077;42.716;23.344;2023-05-11T00:27:52;95606.09;;;11.23;57.77
64668;BME280;51077;42.716;23.344;2023-05-11T00:30:17;95613.84;;;11.19;57.59
64668;BME280;51077;42.716;23.344;2023-05-11T00:32:43;95600.59;;;11.23;57.65
64668;BME280;51077;42.716;23.344;2023-05-11T00:35:09;95610.09;;;11.22;57.40
64668;BME280;51077;42.716;23.344;2023-05-11T00:37:36;95595.16;;;11.17;57.48
64668;BME280;51077;42.716;23.344;2023-05-11T00:40:02;95607.91;;;11.15;57.28
64668;BME280;51077;42.716;23.344;2023-05-11T00:42:27;95610.41;;;11.13;57.35
64668;BME280;51077;42.716;23.344;2023-05-11T00:44:53;95606.91;;;11.12;57.34
64668;BME280;51077;42.716;23.344;2023-05-11T00:47:18;95604.16;;;11.12;57.00
64668;BME280;51077;42.716;23.344;2023-05-11T00:49:44;95613.94;;;11.07;56.74
64668;BME280;51077;42.716;23.344;2023-05-11T00:52:10;95608.94;;;11.06;56.74
64668;BME280;51077;42.716;23.344;2023-05-11T00:54:36;95609.97;;;11.03;56.75
64668;BME280;51077;42.716;23.344;2023-05-11T00:57:02;95610.22;;;10.99;56.80
64668;BME280;51077;42.716;23.344;2023-05-11T00:59:28;95621.94;;;11.00;56.42
64668;BME280;51077;42.716;23.344;2023-05-11T01:01:53;95607.50;;;10.94;56.60
64668;BME280;51077;42.716;23.344;2023-05-11T01:04:19;95608.00;;;10.92;56.67
64668;BME280;51077;42.716;23.344;2023-05-11T01:13:32;95601.03;;;10.86;56.16
64668;BME280;51077;42.716;23.344;2023-05-11T01:16:01;95596.28;;;10.86;56.00
64668;BME280;51077;42.716;23.344;2023-05-11T01:18:41;95600.53;;;10.87;55.84
64668;BME280;51077;42.716;23.344;2023-05-11T01:21:10;95613.28;;;10.85;55.86
64668;BME280;51077;42.716;23.344;2023-05-11T01:24:13;95609.03;;;10.83;55.79
64668;BME280;51077;42.716;23.344;2023-05-11T01:32:42;95605.31;;;10.75;55.92
64668;BME280;51077;42.716;23.344;2023-05-11T01:35:17;95615.28;;;10.78;55.59
64668;BME280;51077;42.716;23.344;2023-05-11T01:37:48;95614.31;;;10.76;55.87
64668;BME280;51077;42.716;23.344;2023-05-11T01:40:15;95612.78;;;10.75;55.94
64668;BME280;51077;42.716;23.344;2023-05-11T01:42:47;95611.56;;;10.76;56.08
64668;BME280;51077;42.716;23.344;2023-05-11T01:45:14;95603.31;;;10.76;55.81
64668;BME280;51077;42.716;23.344;2023-05-11T01:47:42;95610.31;;;10.77;55.97
64668;BME280;51077;42.716;23.344;2023-05-11T01:50:09;95608.06;;;10.75;56.15
64668;BME280;51077;42.716;23.344;2023-05-11T01:52:36;95613.56;;;10.75;56.10
64668;BME280;51077;42.716;23.344;2023-05-11T01:55:04;95621.28;;;10.77;56.09
64668;BME280;51077;42.716;23.344;2023-05-11T01:57:31;95613.56;;;10.75;56.29
64668;BME280;51077;42.716;23.344;2023-05-11T01:59:58;95629.00;;;10.78;56.08
64668;BME280;51077;42.716;23.344;2023-05-11T02:02:26;95628.28;;;10.78;56.17
64668;BME280;51077;42.716;23.344;2023-05-11T02:04:53;95623.78;;;10.80;56.15
64668;BME280;51077;42.716;23.344;2023-05-11T02:07:19;95624.53;;;10.81;56.26
64668;BME280;51077;42.716;23.344;2023-05-11T02:09:47;95619.03;;;10.81;56.28
64668;BME280;51077;42.716;23.344;2023-05-11T02:12:17;95623.25;;;10.82;56.22
64668;BME280;51077;42.716;23.344;2023-05-11T02:14:44;95608.53;;;10.79;56.21
64668;BME280;51077;42.716;23.344;2023-05-11T02:17:11;95614.03;;;10.79;56.26
64668;BME280;51077;42.716;23.344;2023-05-11T02:19:41;95612.78;;;10.80;56.29
64668;BME280;51077;42.716;23.344;2023-05-11T02:22:07;95610.78;;;10.81;56.27
64668;BME280;51077;42.716;23.344;2023-05-11T02:24:34;95617.53;;;10.80;56.17
64668;BME280;51077;42.716;23.344;2023-05-11T02:27:00;95606.31;;;10.78;56.22
64668;BME280;51077;42.716;23.344;2023-05-11T02:29:26;95607.81;;;10.73;56.47
64668;BME280;51077;42.716;23.344;2023-05-11T02:31:56;95601.59;;;10.73;56.33
64668;BME280;51077;42.716;23.344;2023-05-11T02:34:28;95603.06;;;10.74;56.49
64668;BME280;51077;42.716;23.344;2023-05-11T02:36:57;95609.56;;;10.71;56.42
64668;BME280;51077;42.716;23.344;2023-05-11T02:39:28;95602.34;;;10.68;56.71
64668;BME280;51077;42.716;23.344;2023-05-11T02:41:56;95603.09;;;10.68;56.63
64668;BME280;51077;42.716;23.344;2023-05-11T02:44:27;95596.88;;;10.68;56.63
64668;BME280;51077;42.716;23.344;2023-05-11T02:46:55;95620.09;;;10.67;56.72
64668;BME280;51077;42.716;23.344;2023-05-11T02:49:28;95602.84;;;10.66;56.65
64668;BME280;51077;42.716;23.344;2023-05-11T02:51:56;95595.38;;;10.67;56.62
64668;BME280;51077;42.716;23.344;2023-05-11T02:54:23;95591.63;;;10.64;56.95
64668;BME280;51077;42.716;23.344;2023-05-11T02:56:50;95605.09;;;10.62;56.78
64668;BME280;51077;42.716;23.344;2023-05-11T02:59:16;95590.41;;;10.60;56.98
64668;BME280;51077;42.716;23.344;2023-05-11T03:01:43;95605.38;;;10.59;57.03
64668;BME280;51077;42.716;23.344;2023-05-11T03:04:09;95601.13;;;10.57;56.91
64668;BME280;51077;42.716;23.344;2023-05-11T03:06:35;95601.63;;;10.56;56.96
64668;BME280;51077;42.716;23.344;2023-05-11T03:09:01;95604.88;;;10.54;57.18
64668;BME280;51077;42.716;23.344;2023-05-11T03:11:26;95579.69;;;10.50;57.29
64668;BME280;51077;42.716;23.344;2023-05-11T03:13:52;95595.41;;;10.50;57.21
64668;BME280;51077;42.716;23.344;2023-05-11T03:16:19;95609.16;;;10.50;57.26
64668;BME280;51077;42.716;23.344;2023-05-11T03:18:46;95605.41;;;10.47;57.32
64668;BME280;51077;42.716;23.344;2023-05-11T03:21:15;95591.44;;;10.45;57.44
64668;BME280;51077;42.716;23.344;2023-05-11T03:23:42;95605.16;;;10.45;57.35
64668;BME280;51077;42.716;23.344;2023-05-11T03:26:09;95613.66;;;10.42;57.43
64668;BME280;51077;42.716;23.344;2023-05-11T03:28:36;95599.19;;;10.41;57.64
64668;BME280;51077;42.716;23.344;2023-05-11T03:31:02;95593.44;;;10.39;57.69
64668;BME280;51077;42.716;23.344;2023-05-11T03:33:28;95609.41;;;10.41;57.66
64668;BME280;51077;42.716;23.344;2023-05-11T03:35:54;95640.59;;;10.38;57.75
64668;BME280;51077;42.716;23.344;2023-05-11T03:38:22;95602.94;;;10.38;57.76
64668;BME280;51077;42.716;23.344;2023-05-11T03:40:51;95617.16;;;10.37;57.89
64668;BME280;51077;42.716;23.344;2023-05-11T03:43:18;95634.59;;;10.34;58.19
64668;BME280;51077;42.716;23.344;2023-05-11T03:45:44;95624.63;;;10.36;58.21
64668;BME280;51077;42.716;23.344;2023-05-11T03:48:13;95605.91;;;10.35;57.96
64668;BME280;51077;42.716;23.344;2023-05-11T03:50:41;95617.63;;;10.35;58.30
64668;BME280;51077;42.716;23.344;2023-05-11T03:53:07;95611.91;;;10.33;58.29
64668;BME280;51077;42.716;23.344;2023-05-11T03:55:33;95625.63;;;10.33;58.48
64668;BME280;51077;42.716;23.344;2023-05-11T03:57:58;95618.16;;;10.34;58.75
64668;BME280;51077;42.716;23.344;2023-05-11T04:00:25;95610.16;;;10.36;58.67
64668;BME280;51077;42.716;23.344;2023-05-11T04:02:50;95625.13;;;10.35;58.70
64668;BME280;51077;42.716;23.344;2023-05-11T04:05:16;95622.63;;;10.37;58.97
64668;BME280;51077;42.716;23.344;2023-05-11T04:07:42;95638.09;;;10.40;58.55
64668;BME280;51077;42.716;23.344;2023-05-11T04:10:08;95623.63;;;10.39;58.76
64668;BME280;51077;42.716;23.344;2023-05-11T04:12:33;95627.63;;;10.38;58.80
64668;BME280;51077;42.716;23.344;2023-05-11T04:14:59;95642.09;;;10.39;58.93
64668;BME280;51077;42.716;23.344;2023-05-11T04:17:24;95636.59;;;10.39;59.09
64668;BME280;51077;42.716;23.344;2023-05-11T04:19:50;95631.84;;;10.39;58.99
64668;BME280;51077;42.716;23.344;2023-05-11T04:22:15;95623.13;;;10.41;59.02
64668;BME280;51077;42.716;23.344;2023-05-11T04:24:40;95634.84;;;10.41;59.16
64668;BME280;51077;42.716;23.344;2023-05-11T04:27:06;95638.59;;;10.38;59.27
64668;BME280;51077;42.716;23.344;2023-05-11T04:29:31;95640.84;;;10.34;59.37
64668;BME280;51077;42.716;23.344;2023-05-11T04:31:57;95641.09;;;10.30;59.45
64668;BME280;51077;42.716;23.344;2023-05-11T04:34:22;95636.84;;;10.35;59.58
64668;BME280;51077;42.716;23.344;2023-05-11T04:36:48;95636.34;;;10.37;59.64
64668;BME280;51077;42.716;23.344;2023-05-11T04:39:15;95643.84;;;10.36;59.71
64668;BME280;51077;42.716;23.344;2023-05-11T04:41:44;95657.81;;;10.38;59.83
64668;BME280;51077;42.716;23.344;2023-05-11T04:44:10;95643.84;;;10.36;59.72
64668;BME280;51077;42.716;23.344;2023-05-11T04:46:36;95637.09;;;10.37;59.72
64668;BME280;51077;42.716;23.344;2023-05-11T04:49:03;95645.56;;;10.39;59.86
64668;BME280;51077;42.716;23.344;2023-05-11T04:51:29;95637.09;;;10.37;60.00
64668;BME280;51077;42.716;23.344;2023-05-11T04:53:55;95644.59;;;10.37;60.00
64668;BME280;51077;42.716;23.344;2023-05-11T04:56:20;95648.56;;;10.36;59.93
64668;BME280;51077;42.716;23.344;2023-05-11T04:58:46;95661.06;;;10.37;60.09
64668;BME280;51077;42.716;23.344;2023-05-11T05:01:11;95650.81;;;10.37;60.24
64668;BME280;51077;42.716;23.344;2023-05-11T05:03:37;95660.03;;;10.40;60.29
64668;BME280;51077;42.716;23.344;2023-05-11T05:06:02;95664.03;;;10.39;60.24
64668;BME280;51077;42.716;23.344;2023-05-11T05:08:28;95657.78;;;10.44;60.21
64668;BME280;51077;42.716;23.344;2023-05-11T05:10:53;95641.31;;;10.44;60.13
64668;BME280;51077;42.716;23.344;2023-05-11T05:13:18;95661.03;;;10.48;60.07
64668;BME280;51077;42.716;23.344;2023-05-11T05:15:44;95669.50;;;10.50;59.95
64668;BME280;51077;42.716;23.344;2023-05-11T05:18:09;95678.22;;;10.48;60.15
64668;BME280;51077;42.716;23.344;2023-05-11T05:20:34;95670.28;;;10.45;59.98
64668;BME280;51077;42.716;23.344;2023-05-11T05:23:00;95665.28;;;10.43;60.27
64668;BME280;51077;42.716;23.344;2023-05-11T05:25:26;95673.03;;;10.45;60.20
64668;BME280;51077;42.716;23.344;2023-05-11T05:27:51;95678.00;;;10.46;60.31
64668;BME280;51077;42.716;23.344;2023-05-11T05:30:17;95674.25;;;10.49;60.39
64668;BME280;51077;42.716;23.344;2023-05-11T05:32:42;95673.50;;;10.54;60.25
64668;BME280;51077;42.716;23.344;2023-05-11T05:35:08;95674.00;;;10.59;60.11
64668;BME280;51077;42.716;23.344;2023-05-11T05:37:33;95674.22;;;10.61;59.80
64668;BME280;51077;42.716;23.344;2023-05-11T05:39:59;95675.47;;;10.65;59.78
64668;BME280;51077;42.716;23.344;2023-05-11T05:42:24;95676.47;;;10.68;59.83
64668;BME280;51077;42.716;23.344;2023-05-11T05:44:50;95692.44;;;10.69;59.60
64668;BME280;51077;42.716;23.344;2023-05-11T05:47:15;95680.94;;;10.71;59.40
64668;BME280;51077;42.716;23.344;2023-05-11T05:49:41;95689.66;;;10.75;59.52
64668;BME280;51077;42.716;23.344;2023-05-11T05:52:08;95672.72;;;10.76;59.43
64668;BME280;51077;42.716;23.344;2023-05-11T05:54:34;95681.19;;;10.78;59.38
64668;BME280;51077;42.716;23.344;2023-05-11T05:57:00;95677.69;;;10.78;59.21
64668;BME280;51077;42.716;23.344;2023-05-11T05:59:25;95675.19;;;10.80;59.15
64668;BME280;51077;42.716;23.344;2023-05-11T06:01:51;95698.88;;;10.83;59.15
64668;BME280;51077;42.716;23.344;2023-05-11T06:04:16;95691.41;;;10.83;59.15
64668;BME280;51077;42.716;23.344;2023-05-11T06:06:41;95703.91;;;10.85;58.99
64668;BME280;51077;42.716;23.344;2023-05-11T06:09:07;95697.88;;;10.86;58.85
64668;BME280;51077;42.716;23.344;2023-05-11T06:11:33;95686.41;;;10.88;58.96
64668;BME280;51077;42.716;23.344;2023-05-11T06:13:58;95691.66;;;10.86;58.90
64668;BME280;51077;42.716;23.344;2023-05-11T06:16:23;95686.63;;;10.95;62.59
64668;BME280;51077;42.716;23.344;2023-05-11T06:18:49;95696.53;;;11.21;64.63
64668;BME280;51077;42.716;23.344;2023-05-11T06:21:15;95710.25;;;11.26;62.56
64668;BME280;51077;42.716;23.344;2023-05-11T06:23:40;95706.50;;;11.29;61.24
64668;BME280;51077;42.716;23.344;2023-05-11T06:26:06;95707.75;;;11.28;60.36
64668;BME280;51077;42.716;23.344;2023-05-11T06:28:31;95697.03;;;11.25;59.77
64668;BME280;51077;42.716;23.344;2023-05-11T06:30:57;95698.50;;;11.26;59.37
64668;BME280;51077;42.716;23.344;2023-05-11T06:33:28;95693.75;;;11.26;58.63
64668;BME280;51077;42.716;23.344;2023-05-11T06:35:53;95715.03;;;11.20;58.46
64668;BME280;51077;42.716;23.344;2023-05-11T06:38:18;95726.00;;;11.20;58.38
64668;BME280;51077;42.716;23.344;2023-05-11T06:40:44;95719.78;;;11.20;58.37
64668;BME280;51077;42.716;23.344;2023-05-11T06:43:09;95725.50;;;11.22;57.85
64668;BME280;51077;42.716;23.344;2023-05-11T06:45:34;95717.50;;;11.24;57.77
64668;BME280;51077;42.716;23.344;2023-05-11T06:48:00;95723.00;;;11.24;57.82
64668;BME280;51077;42.716;23.344;2023-05-11T06:50:26;95708.50;;;11.29;57.66
64668;BME280;51077;42.716;23.344;2023-05-11T06:52:51;95707.97;;;11.30;57.59
64668;BME280;51077;42.716;23.344;2023-05-11T06:55:18;95713.75;;;11.32;57.26
64668;BME280;51077;42.716;23.344;2023-05-11T06:57:43;95716.19;;;11.36;57.09
64668;BME280;51077;42.716;23.344;2023-05-11T07:00:09;95700.47;;;11.37;57.10
64668;BME280;51077;42.716;23.344;2023-05-11T07:02:34;95711.66;;;11.44;56.71
64668;BME280;51077;42.716;23.344;2023-05-11T07:05:00;95735.41;;;11.47;56.34
64668;BME280;51077;42.716;23.344;2023-05-11T07:07:25;95722.38;;;11.53;56.01
64668;BME280;51077;42.716;23.344;2023-05-11T07:09:51;95721.38;;;11.56;55.72
64668;BME280;51077;42.716;23.344;2023-05-11T07:12:16;95720.59;;;11.62;55.76
64668;BME280;51077;42.716;23.344;2023-05-11T07:14:41;95714.03;;;11.76;55.42
64668;BME280;51077;42.716;23.344;2023-05-11T07:17:07;95704.25;;;11.86;54.86
64668;BME280;51077;42.716;23.344;2023-05-11T07:19:32;95708.16;;;11.96;54.39
64668;BME280;51077;42.716;23.344;2023-05-11T07:21:57;95721.59;;;12.05;54.28
64668;BME280;51077;42.716;23.344;2023-05-11T07:24:23;95723.03;;;12.18;54.15
64668;BME280;51077;42.716;23.344;2023-05-11T07:26:48;95728.69;;;12.31;53.61
64668;BME280;51077;42.716;23.344;2023-05-11T07:29:15;95715.31;;;12.46;52.90
64668;BME280;51077;42.716;23.344;2023-05-11T07:31:40;95714.19;;;12.61;52.37
64668;BME280;51077;42.716;23.344;2023-05-11T07:34:07;95723.03;;;12.78;55.01
64668;BME280;51077;42.716;23.344;2023-05-11T07:36:32;95719.56;;;13.02;55.50
64668;BME280;51077;42.716;23.344;2023-05-11T07:38:58;95727.88;;;13.21;53.88
64668;BME280;51077;42.716;23.344;2023-05-11T07:41:25;95729.94;;;13.39;52.40
64668;BME280;51077;42.716;23.344;2023-05-11T07:43:52;95705.97;;;13.53;51.45
64668;BME280;51077;42.716;23.344;2023-05-11T07:46:17;95704.25;;;13.69;50.63
64668;BME280;51077;42.716;23.344;2023-05-11T07:48:43;95721.09;;;13.84;50.18
64668;BME280;51077;42.716;23.344;2023-05-11T07:51:08;95720.34;;;14.02;49.47
64668;BME280;51077;42.716;23.344;2023-05-11T07:53:34;95716.09;;;14.20;48.81
64668;BME280;51077;42.716;23.344;2023-05-11T07:56:00;95712.31;;;14.37;48.46
64668;BME280;51077;42.716;23.344;2023-05-11T07:58:25;95712.59;;;14.52;48.29
64668;BME280;51077;42.716;23.344;2023-05-11T08:00:51;95710.28;;;14.69;47.73
64668;BME280;51077;42.716;23.344;2023-05-11T08:03:16;95709.88;;;14.78;47.31
64668;BME280;51077;42.716;23.344;2023-05-11T08:05:42;95710.75;;;14.87;46.92
64668;BME280;51077;42.716;23.344;2023-05-11T08:08:07;95724.91;;;14.96;46.84
64668;BME280;51077;42.716;23.344;2023-05-11T08:10:34;95712.56;;;15.11;46.69
64668;BME280;51077;42.716;23.344;2023-05-11T08:12:59;95719.81;;;15.27;46.03
64668;BME280;51077;42.716;23.344;2023-05-11T08:15:25;95714.94;;;15.33;45.71
64668;BME280;51077;42.716;23.344;2023-05-11T08:17:51;95713.94;;;15.44;45.42
64668;BME280;51077;42.716;23.344;2023-05-11T08:20:16;95712.78;;;15.52;45.12
64668;BME280;51077;42.716;23.344;2023-05-11T08:22:42;95719.16;;;15.61;45.01
64668;BME280;51077;42.716;23.344;2023-05-11T08:25:08;95726.09;;;15.67;44.70
64668;BME280;51077;42.716;23.344;2023-05-11T08:27:33;95717.00;;;15.80;44.47
64668;BME280;51077;42.716;23.344;2023-05-11T08:29:59;95713.44;;;15.93;44.15
64668;BME280;51077;42.716;23.344;2023-05-11T08:32:24;95711.50;;;16.01;43.90
64668;BME280;51077;42.716;23.344;2023-05-11T08:34:51;95725.13;;;16.12;43.84
64668;BME280;51077;42.716;23.344;2023-05-11T08:37:16;95719.31;;;16.23;43.50
64668;BME280;51077;42.716;23.344;2023-05-11T08:39:42;95733.06;;;16.29;43.29
64668;BME280;51077;42.716;23.344;2023-05-11T08:42:09;95714.88;;;16.41;43.39
64668;BME280;51077;42.716;23.344;2023-05-11T08:44:34;95723.59;;;16.45;43.18
64668;BME280;51077;42.716;23.344;2023-05-11T08:47:02;95703.34;;;16.50;43.18
64668;BME280;51077;42.716;23.344;2023-05-11T08:49:29;95724.63;;;16.55;43.11
64668;BME280;51077;42.716;23.344;2023-05-11T08:51:55;95725.56;;;16.58;43.07
64668;BME280;51077;42.716;23.344;2023-05-11T08:54:21;95713.00;;;16.57;43.03
64668;BME280;51077;42.716;23.344;2023-05-11T08:56:46;95709.75;;;16.66;43.13
64668;BME280;51077;42.716;23.344;2023-05-11T08:59:13;95713.47;;;16.69;42.99
64668;BME280;51077;42.716;23.344;2023-05-11T09:01:40;95715.78;;;16.78;43.02
64668;BME280;51077;42.716;23.344;2023-05-11T09:04:07;95727.13;;;16.88;42.87
64668;BME280;51077;42.716;23.344;2023-05-11T09:06:33;95719.94;;;16.92;42.58
64668;BME280;51077;42.716;23.344;2023-05-11T09:08:59;95700.03;;;17.01;42.36
64668;BME280;51077;42.716;23.344;2023-05-11T09:11:26;95707.28;;;17.04;42.25
64668;BME280;51077;42.716;23.344;2023-05-11T09:13:52;95710.25;;;17.06;42.21
64668;BME280;51077;42.716;23.344;2023-05-11T09:16:17;95722.50;;;17.11;42.00
64668;BME280;51077;42.716;23.344;2023-05-11T09:18:47;95710.34;;;17.22;41.55
64668;BME280;51077;42.716;23.344;2023-05-11T09:21:12;95709.09;;;17.30;42.01
64668;BME280;51077;42.716;23.344;2023-05-11T09:23:39;95723.59;;;17.44;41.72
64668;BME280;51077;42.716;23.344;2023-05-11T09:26:15;95702.59;;;17.56;41.15
64668;BME280;51077;42.716;23.344;2023-05-11T09:28:48;95712.25;;;17.71;41.05
64668;BME280;51077;42.716;23.344;2023-05-11T09:31:46;95705.81;;;17.76;40.75
64668;BME280;51077;42.716;23.344;2023-05-11T09:34:16;95723.84;;;17.90;40.65
64668;BME280;51077;42.716;23.344;2023-05-11T09:36:52;95714.25;;;17.99;40.24
64668;BME280;51077;42.716;23.344;2023-05-11T09:39:27;95703.53;;;18.03;40.23
64668;BME280;51077;42.716;23.344;2023-05-11T09:44:42;95702.41;;;18.06;40.35
64668;BME280;51077;42.716;23.344;2023-05-11T09:47:19;95738.38;;;18.12;40.08
64668;BME280;51077;42.716;23.344;2023-05-11T09:49:46;95704.31;;;18.26;39.94
64668;BME280;51077;42.716;23.344;2023-05-11T09:52:14;95713.41;;;18.34;39.50
64668;BME280;51077;42.716;23.344;2023-05-11T09:54:49;95714.00;;;18.48;39.31
64668;BME280;51077;42.716;23.344;2023-05-11T09:59:50;95690.84;;;18.92;38.65
64668;BME280;51077;42.716;23.344;2023-05-11T10:02:24;95689.53;;;19.08;38.29
64668;BME280;51077;42.716;23.344;2023-05-11T10:04:52;95681.72;;;19.14;38.34
64668;BME280;51077;42.716;23.344;2023-05-11T10:07:31;95669.47;;;19.25;38.08
64668;BME280;51077;42.716;23.344;2023-05-11T10:10:02;95704.13;;;19.39;37.93
64668;BME280;51077;42.716;23.344;2023-05-11T10:12:28;95700.38;;;19.52;37.55
64668;BME280;51077;42.716;23.344;2023-05-11T10:15:00;95671.25;;;19.61;37.41
64668;BME280;51077;42.716;23.344;2023-05-11T10:17:27;95682.00;;;19.64;37.47
64668;BME280;51077;42.716;23.344;2023-05-11T10:19:54;95663.44;;;19.59;37.42
64668;BME280;51077;42.716;23.344;2023-05-11T10:22:26;95653.63;;;19.50;36.88
64668;BME280;51077;42.716;23.344;2023-05-11T10:24:53;95652.78;;;19.17;37.24
64668;BME280;51077;42.716;23.344;2023-05-11T10:27:21;95658.03;;;18.90;37.74
64668;BME280;51077;42.716;23.344;2023-05-11T10:29:47;95699.22;;;18.76;38.06
64668;BME280;51077;42.716;23.344;2023-05-11T10:32:14;95657.47;;;18.84;38.05
64668;BME280;51077;42.716;23.344;2023-05-11T10:34:41;95654.13;;;18.93;37.88
64668;BME280;51077;42.716;23.344;2023-05-11T10:37:08;95654.31;;;19.03;37.67
64668;BME280;51077;42.716;23.344;2023-05-11T10:39:38;95647.97;;;19.10;37.48
64668;BME280;51077;42.716;23.344;2023-05-11T10:44:54;95665.16;;;19.39;37.14
64668;BME280;51077;42.716;23.344;2023-05-11T10:58:09;95636.06;;;20.63;35.06
64668;BME280;51077;42.716;23.344;2023-05-11T11:03:21;95651.56;;;20.56;35.35
64668;BME280;51077;42.716;23.344;2023-05-11T11:05:46;95631.88;;;20.54;35.33
64668;BME280;51077;42.716;23.344;2023-05-11T11:08:12;95638.38;;;20.57;35.39
64668;BME280;51077;42.716;23.344;2023-05-11T11:10:40;95642.00;;;20.67;35.10
64668;BME280;51077;42.716;23.344;2023-05-11T11:13:09;95650.91;;;20.91;35.12
64668;BME280;51077;42.716;23.344;2023-05-11T11:20:48;95644.09;;;21.19;34.36
64668;BME280;51077;42.716;23.344;2023-05-11T11:26:05;95634.91;;;21.08;34.60
64668;BME280;51077;42.716;23.344;2023-05-11T11:33:54;95639.50;;;20.96;35.02
64668;BME280;51077;42.716;23.344;2023-05-11T11:39:21;95625.41;;;21.29;34.33
64668;BME280;51077;42.716;23.344;2023-05-11T11:42:04;95647.16;;;21.65;33.35
64668;BME280;51077;42.716;23.344;2023-05-11T11:44:32;95630.38;;;21.82;33.32
64668;BME280;51077;42.716;23.344;2023-05-11T11:49:42;95618.69;;;21.76;33.45
64668;BME280;51077;42.716;23.344;2023-05-11T11:54:54;95635.66;;;21.26;35.25
64668;BME280;51077;42.716;23.344;2023-05-11T12:00:05;95614.53;;;20.98;35.36
64668;BME280;51077;42.716;23.344;2023-05-11T12:02:32;95621.72;;;20.67;35.72
64668;BME280;51077;42.716;23.344;2023-05-11T12:07:40;95609.47;;;20.37;35.95
64668;BME280;51077;42.716;23.344;2023-05-11T12:10:06;95605.69;;;20.25;36.24
64668;BME280;51077;42.716;23.344;2023-05-11T12:12:32;95627.31;;;20.17;36.34
64668;BME280;51077;42.716;23.344;2023-05-11T12:14:57;95621.66;;;19.99;36.19
64668;BME280;51077;42.716;23.344;2023-05-11T12:17:26;95622.44;;;19.92;36.48
64668;BME280;51077;42.716;23.344;2023-05-11T12:19:53;95607.75;;;19.59;36.88
64668;BME280;51077;42.716;23.344;2023-05-11T12:22:23;95607.97;;;19.46;37.16
64668;BME280;51077;42.716;23.344;2023-05-11T12:24:49;95598.56;;;19.33;37.31
64668;BME280;51077;42.716;23.344;2023-05-11T12:27:17;95608.63;;;19.21;37.53
64668;BME280;51077;42.716;23.344;2023-05-11T12:29:50;95587.88;;;19.15;37.24
64668;BME280;51077;42.716;23.344;2023-05-11T12:32:26;95593.84;;;19.03;37.55
64668;BME280;51077;42.716;23.344;2023-05-11T12:35:00;95586.25;;;18.96;37.67
64668;BME280;51077;42.716;23.344;2023-05-11T12:37:26;95587.00;;;18.97;37.99
64668;BME280;51077;42.716;23.344;2023-05-11T12:39:53;95587.00;;;18.97;37.85
64668;BME280;51077;42.716;23.344;2023-05-11T12:42:19;95580.53;;;18.94;37.94
64668;BME280;51077;42.716;23.344;2023-05-11T12:44:45;95573.66;;;18.88;38.20
64668;BME280;51077;42.716;23.344;2023-05-11T12:47:10;95575.94;;;18.74;38.35
64668;BME280;51077;42.716;23.344;2023-05-11T12:49:36;95567.19;;;18.62;38.60
64668;BME280;51077;42.716;23.344;2023-05-11T12:52:04;95574.44;;;18.57;38.87
64668;BME280;51077;42.716;23.344;2023-05-11T12:54:39;95587.44;;;18.47;38.80
64668;BME280;51077;42.716;23.344;2023-05-11T12:57:07;95573.38;;;18.38;38.98
64668;BME280;51077;42.716;23.344;2023-05-11T12:59:34;95558.91;;;18.31;39.23
64668;BME280;51077;42.716;23.344;2023-05-11T13:04:36;95562.44;;;18.17;39.27
64668;BME280;51077;42.716;23.344;2023-05-11T13:07:01;95557.63;;;18.09;39.35
64668;BME280;51077;42.716;23.344;2023-05-11T13:09:27;95559.09;;;18.03;39.55
64668;BME280;51077;42.716;23.344;2023-05-11T13:12:20;95545.38;;;17.97;39.60
64668;BME280;51077;42.716;23.344;2023-05-11T13:14:47;95552.81;;;17.95;39.69
64668;BME280;51077;42.716;23.344;2023-05-11T13:17:27;95550.19;;;17.89;40.13
64668;BME280;51077;42.716;23.344;2023-05-11T13:19:54;95549.63;;;17.83;40.19
64668;BME280;51077;42.716;23.344;2023-05-11T13:22:19;95545.75;;;17.78;40.38
64668;BME280;51077;42.716;23.344;2023-05-11T13:24:44;95564.25;;;17.76;40.29
64668;BME280;51077;42.716;23.344;2023-05-11T13:27:10;95557.00;;;17.73;40.39
64668;BME280;51077;42.716;23.344;2023-05-11T13:29:35;95543.66;;;17.71;40.38
64668;BME280;51077;42.716;23.344;2023-05-11T13:32:01;95541.63;;;17.72;40.48
64668;BME280;51077;42.716;23.344;2023-05-11T13:34:26;95545.53;;;17.69;40.62
64668;BME280;51077;42.716;23.344;2023-05-11T13:36:52;95539.78;;;17.67;40.63
64668;BME280;51077;42.716;23.344;2023-05-11T13:39:17;95547.91;;;17.65;40.62
64668;BME280;51077;42.716;23.344;2023-05-11T13:41:44;95540.16;;;17.63;40.79
64668;BME280;51077;42.716;23.344;2023-05-11T13:44:09;95554.38;;;17.59;40.92
64668;BME280;51077;42.716;23.344;2023-05-11T13:46:35;95538.09;;;17.56;41.02
64668;BME280;51077;42.716;23.344;2023-05-11T13:49:00;95525.69;;;17.49;40.85
64668;BME280;51077;42.716;23.344;2023-05-11T13:51:26;95547.69;;;17.47;41.26
64668;BME280;51077;42.716;23.344;2023-05-11T13:53:51;95537.69;;;17.44;41.09